logo
Search for airport 
image banner adimage banner adimage banner ad
image banner ad

FBSK - Gaborone/Sir Seretse Khama - Intl

Located in Gaborone, Botswana

ICAO - FBSK, IATA - GBE

Data provided by Airmate  

General information

Coordinates: S24°33'21" E25°55'8"
Elevation is 3299 feet MSL.
Magnetic variation is -16° East
View others Airports in South-East District

Operational data

Special qualification required
Current time UTC:
Current local time:
Weather
TAF: TAF FBSK 172200Z 1800/1906 08005KT CAVOK
View NOTAMs / SUP AIP / TFR affecting this airport [VIEW]
Communications frequencies: [VIEW]

Runways:

RWY identifierQFULength (ft)Width (ft)SurfaceLDA (ft)
0862°13077143CONC9843
26242°13077143CONC9843

Airport contact information

Address: Gaborone Botswana

Satellite view of FBSK